X  Sluiten METAR luchtvaart weer gegevens      LYNI Nis Airport
Temperatuur
1°C Temperatuur
0°C Dauwpunt
93% Vochtigheid



Wind
19 KM/U
12 MPH
5 M/S
10 KTS



310°
NW
Huidig weer

Lichte Sneeuw Lichte Sneeuw
Luchtdruk 1023.92 (hPa) - 30.24 (inHg)
Zicht 6.2 (mijl) - 10 (km)
Vliegveld
Vliegveld code LYNI

Locatie : Nis Airport
Afstand: 63 (km)

Metar:
LYNI 290900Z 31010KT 9999 -SN SCT007 BKN010 OVC020 01/M00 Q1024 NOSIG

Tijd: 29-01-2023 10:00 CET